sensor_id;sensor_type;location;lat;lon;timestamp;temperature;humidity
18805;DHT22;9530;48.930;9.526;2023-04-06T00:00:00;0.60;99.90
18805;DHT22;9530;48.930;9.526;2023-04-06T00:02:27;0.60;99.90
18805;DHT22;9530;48.930;9.526;2023-04-06T00:04:53;0.60;99.90
18805;DHT22;9530;48.930;9.526;2023-04-06T00:07:20;0.60;99.90
18805;DHT22;9530;48.930;9.526;2023-04-06T00:09:47;0.50;99.90
18805;DHT22;9530;48.930;9.526;2023-04-06T00:12:13;0.50;99.90
18805;DHT22;9530;48.930;9.526;2023-04-06T00:14:41;0.50;99.90
18805;DHT22;9530;48.930;9.526;2023-04-06T00:17:08;0.20;99.90
18805;DHT22;9530;48.930;9.526;2023-04-06T00:19:35;0.10;99.90
18805;DHT22;9530;48.930;9.526;2023-04-06T00:22:02;0.10;99.90
18805;DHT22;9530;48.930;9.526;2023-04-06T00:24:29;0.20;99.90
18805;DHT22;9530;48.930;9.526;2023-04-06T00:26:55;0.10;99.90
18805;DHT22;9530;48.930;9.526;2023-04-06T00:29:22;0.10;99.90
18805;DHT22;9530;48.930;9.526;2023-04-06T00:31:50;0.20;99.90
18805;DHT22;9530;48.930;9.526;2023-04-06T00:34:17;0.20;99.90
18805;DHT22;9530;48.930;9.526;2023-04-06T00:36:43;0.20;99.90
18805;DHT22;9530;48.930;9.526;2023-04-06T00:39:10;0.20;99.90
18805;DHT22;9530;48.930;9.526;2023-04-06T00:41:36;0.20;99.90
18805;DHT22;9530;48.930;9.526;2023-04-06T00:44:03;0.20;99.90
18805;DHT22;9530;48.930;9.526;2023-04-06T00:46:30;0.20;99.90
18805;DHT22;9530;48.930;9.526;2023-04-06T00:48:58;0.10;99.90
18805;DHT22;9530;48.930;9.526;2023-04-06T00:51:25;0.20;99.90
18805;DHT22;9530;48.930;9.526;2023-04-06T00:53:52;0.30;99.90
18805;DHT22;9530;48.930;9.526;2023-04-06T00:56:18;0.30;99.90
18805;DHT22;9530;48.930;9.526;2023-04-06T00:58:45;0.30;99.90
18805;DHT22;9530;48.930;9.526;2023-04-06T01:01:12;0.30;99.90
18805;DHT22;9530;48.930;9.526;2023-04-06T01:03:38;0.20;99.90
18805;DHT22;9530;48.930;9.526;2023-04-06T01:06:08;0.10;99.90
18805;DHT22;9530;48.930;9.526;2023-04-06T01:08:36;0.10;99.90
18805;DHT22;9530;48.930;9.526;2023-04-06T01:11:03;0.10;99.90
18805;DHT22;9530;48.930;9.526;2023-04-06T01:13:29;-0.10;99.90
18805;DHT22;9530;48.930;9.526;2023-04-06T01:15:56;0.00;99.90
18805;DHT22;9530;48.930;9.526;2023-04-06T01:18:25;-0.10;99.90
18805;DHT22;9530;48.930;9.526;2023-04-06T01:20:52;-0.20;99.90
18805;DHT22;9530;48.930;9.526;2023-04-06T01:23:20;-0.20;99.90
18805;DHT22;9530;48.930;9.526;2023-04-06T01:25:47;-0.20;99.90
18805;DHT22;9530;48.930;9.526;2023-04-06T01:28:14;-0.20;99.90
18805;DHT22;9530;48.930;9.526;2023-04-06T01:30:40;-0.20;99.90
18805;DHT22;9530;48.930;9.526;2023-04-06T01:33:07;-0.10;99.90
18805;DHT22;9530;48.930;9.526;2023-04-06T01:35:34;-0.10;99.90
18805;DHT22;9530;48.930;9.526;2023-04-06T01:38:01;-0.10;99.90
18805;DHT22;9530;48.930;9.526;2023-04-06T01:40:29;-0.20;99.90
18805;DHT22;9530;48.930;9.526;2023-04-06T01:42:56;-0.20;99.90
18805;DHT22;9530;48.930;9.526;2023-04-06T01:45:23;-0.30;99.90
18805;DHT22;9530;48.930;9.526;2023-04-06T01:47:49;-0.20;99.90
18805;DHT22;9530;48.930;9.526;2023-04-06T01:50:16;-0.20;99.90
18805;DHT22;9530;48.930;9.526;2023-04-06T01:52:43;-0.20;99.90
18805;DHT22;9530;48.930;9.526;2023-04-06T01:55:10;-0.20;99.90
18805;DHT22;9530;48.930;9.526;2023-04-06T01:57:37;-0.10;99.90
18805;DHT22;9530;48.930;9.526;2023-04-06T02:00:06;-0.40;99.90
18805;DHT22;9530;48.930;9.526;2023-04-06T02:02:32;-0.40;99.90
18805;DHT22;9530;48.930;9.526;2023-04-06T02:04:59;-0.50;99.90
18805;DHT22;9530;48.930;9.526;2023-04-06T02:07:26;-0.40;99.90
18805;DHT22;9530;48.930;9.526;2023-04-06T02:09:54;-0.40;99.90
18805;DHT22;9530;48.930;9.526;2023-04-06T02:12:21;-0.50;99.90
18805;DHT22;9530;48.930;9.526;2023-04-06T02:14:50;-0.50;99.90
18805;DHT22;9530;48.930;9.526;2023-04-06T02:17:17;-0.40;99.90
18805;DHT22;9530;48.930;9.526;2023-04-06T02:19:44;-0.40;99.90
18805;DHT22;9530;48.930;9.526;2023-04-06T02:22:10;-0.40;99.90
18805;DHT22;9530;48.930;9.526;2023-04-06T02:24:37;-0.40;99.90
18805;DHT22;9530;48.930;9.526;2023-04-06T02:27:04;-0.30;99.90
18805;DHT22;9530;48.930;9.526;2023-04-06T02:29:31;-0.40;99.90
18805;DHT22;9530;48.930;9.526;2023-04-06T02:31:59;-0.40;99.90
18805;DHT22;9530;48.930;9.526;2023-04-06T02:34:26;-0.50;99.90
18805;DHT22;9530;48.930;9.526;2023-04-06T02:36:52;-0.50;99.90
18805;DHT22;9530;48.930;9.526;2023-04-06T02:39:19;-0.50;99.90
18805;DHT22;9530;48.930;9.526;2023-04-06T02:41:45;-0.50;99.90
18805;DHT22;9530;48.930;9.526;2023-04-06T02:44:12;-0.50;99.90
18805;DHT22;9530;48.930;9.526;2023-04-06T02:46:39;-0.40;99.90
18805;DHT22;9530;48.930;9.526;2023-04-06T02:49:07;-0.40;99.90
18805;DHT22;9530;48.930;9.526;2023-04-06T02:51:34;-0.50;99.90
18805;DHT22;9530;48.930;9.526;2023-04-06T02:54:01;-0.60;99.90
18805;DHT22;9530;48.930;9.526;2023-04-06T02:56:27;-0.60;99.90
18805;DHT22;9530;48.930;9.526;2023-04-06T02:58:54;-0.60;99.90
18805;DHT22;9530;48.930;9.526;2023-04-06T03:01:20;-0.60;99.90
18805;DHT22;9530;48.930;9.526;2023-04-06T03:03:47;-0.60;99.90
18805;DHT22;9530;48.930;9.526;2023-04-06T03:06:15;-0.60;99.90
18805;DHT22;9530;48.930;9.526;2023-04-06T03:08:42;-0.60;99.90
18805;DHT22;9530;48.930;9.526;2023-04-06T03:11:09;-0.60;99.90
18805;DHT22;9530;48.930;9.526;2023-04-06T03:13:36;-0.60;99.90
18805;DHT22;9530;48.930;9.526;2023-04-06T03:16:04;-0.70;99.90
18805;DHT22;9530;48.930;9.526;2023-04-06T03:18:31;-0.70;99.90
18805;DHT22;9530;48.930;9.526;2023-04-06T03:20:58;-0.80;99.90
18805;DHT22;9530;48.930;9.526;2023-04-06T03:23:26;-0.70;99.90
18805;DHT22;9530;48.930;9.526;2023-04-06T03:25:53;-0.80;99.90
18805;DHT22;9530;48.930;9.526;2023-04-06T03:28:20;-0.70;99.90
18805;DHT22;9530;48.930;9.526;2023-04-06T03:30:46;-0.70;99.90
18805;DHT22;9530;48.930;9.526;2023-04-06T03:33:13;-0.70;99.90
18805;DHT22;9530;48.930;9.526;2023-04-06T03:35:40;-0.80;99.90
18805;DHT22;9530;48.930;9.526;2023-04-06T03:38:07;-0.80;99.90
18805;DHT22;9530;48.930;9.526;2023-04-06T03:40:35;-0.90;99.90
18805;DHT22;9530;48.930;9.526;2023-04-06T03:43:01;-0.80;99.90
18805;DHT22;9530;48.930;9.526;2023-04-06T03:45:28;-0.80;99.90
18805;DHT22;9530;48.930;9.526;2023-04-06T03:47:55;-0.70;99.90
18805;DHT22;9530;48.930;9.526;2023-04-06T03:50:21;-0.70;99.90
18805;DHT22;9530;48.930;9.526;2023-04-06T03:52:48;-0.70;99.90
18805;DHT22;9530;48.930;9.526;2023-04-06T03:55:15;-0.80;99.90
18805;DHT22;9530;48.930;9.526;2023-04-06T03:57:43;-0.80;99.90
18805;DHT22;9530;48.930;9.526;2023-04-06T04:00:11;-0.80;99.90
18805;DHT22;9530;48.930;9.526;2023-04-06T04:02:38;-0.80;99.90
18805;DHT22;9530;48.930;9.526;2023-04-06T04:05:05;-0.80;99.90
18805;DHT22;9530;48.930;9.526;2023-04-06T04:07:32;-0.80;99.90
18805;DHT22;9530;48.930;9.526;2023-04-06T04:09:58;-0.90;99.90
18805;DHT22;9530;48.930;9.526;2023-04-06T04:12:25;-0.80;99.90
18805;DHT22;9530;48.930;9.526;2023-04-06T04:14:53;-0.70;99.90
18805;DHT22;9530;48.930;9.526;2023-04-06T04:17:21;-0.70;99.90
18805;DHT22;9530;48.930;9.526;2023-04-06T04:19:47;-0.80;99.90
18805;DHT22;9530;48.930;9.526;2023-04-06T04:22:14;-0.90;99.90
18805;DHT22;9530;48.930;9.526;2023-04-06T04:24:40;-1.00;99.90
18805;DHT22;9530;48.930;9.526;2023-04-06T04:27:07;-0.90;99.90
18805;DHT22;9530;48.930;9.526;2023-04-06T04:34:29;-1.20;99.90
18805;DHT22;9530;48.930;9.526;2023-04-06T04:36:56;-1.20;99.90
18805;DHT22;9530;48.930;9.526;2023-04-06T04:39:23;-1.20;99.90
18805;DHT22;9530;48.930;9.526;2023-04-06T04:41:50;-1.30;99.90
18805;DHT22;9530;48.930;9.526;2023-04-06T04:44:17;-1.30;99.90
18805;DHT22;9530;48.930;9.526;2023-04-06T04:46:43;-1.30;99.90
18805;DHT22;9530;48.930;9.526;2023-04-06T04:49:11;-1.30;99.90
18805;DHT22;9530;48.930;9.526;2023-04-06T04:51:38;-1.30;99.90
18805;DHT22;9530;48.930;9.526;2023-04-06T04:54:05;-1.20;99.90
18805;DHT22;9530;48.930;9.526;2023-04-06T04:56:31;-1.30;99.90
18805;DHT22;9530;48.930;9.526;2023-04-06T04:58:58;-1.20;99.90
18805;DHT22;9530;48.930;9.526;2023-04-06T05:01:25;-1.20;99.90
18805;DHT22;9530;48.930;9.526;2023-04-06T05:03:51;-1.20;99.90
18805;DHT22;9530;48.930;9.526;2023-04-06T05:06:19;-1.20;99.90
18805;DHT22;9530;48.930;9.526;2023-04-06T05:08:46;-1.10;99.90
18805;DHT22;9530;48.930;9.526;2023-04-06T05:11:13;-1.10;99.90
18805;DHT22;9530;48.930;9.526;2023-04-06T05:13:39;-1.10;99.90
18805;DHT22;9530;48.930;9.526;2023-04-06T05:16:06;-1.10;99.90
18805;DHT22;9530;48.930;9.526;2023-04-06T05:18:33;-1.00;99.90
18805;DHT22;9530;48.930;9.526;2023-04-06T05:21:00;-1.00;99.90
18805;DHT22;9530;48.930;9.526;2023-04-06T05:23:28;-1.10;99.90
18805;DHT22;9530;48.930;9.526;2023-04-06T05:25:55;-0.90;99.90
18805;DHT22;9530;48.930;9.526;2023-04-06T05:28:22;-1.00;99.90
18805;DHT22;9530;48.930;9.526;2023-04-06T05:30:48;-0.90;99.90
18805;DHT22;9530;48.930;9.526;2023-04-06T05:33:15;-0.80;99.90
18805;DHT22;9530;48.930;9.526;2023-04-06T05:35:42;-0.80;99.90
18805;DHT22;9530;48.930;9.526;2023-04-06T05:38:08;-0.70;99.90
18805;DHT22;9530;48.930;9.526;2023-04-06T05:40:37;-0.80;99.90
18805;DHT22;9530;48.930;9.526;2023-04-06T05:43:06;-0.70;99.90
18805;DHT22;9530;48.930;9.526;2023-04-06T05:45:33;-0.70;99.90
18805;DHT22;9530;48.930;9.526;2023-04-06T05:48:00;-0.60;99.90
18805;DHT22;9530;48.930;9.526;2023-04-06T05:50:27;-0.60;99.90
18805;DHT22;9530;48.930;9.526;2023-04-06T05:52:53;-0.60;99.90
18805;DHT22;9530;48.930;9.526;2023-04-06T05:55:20;-0.50;99.90
18805;DHT22;9530;48.930;9.526;2023-04-06T05:57:48;-0.40;99.90
18805;DHT22;9530;48.930;9.526;2023-04-06T06:00:15;-0.30;99.90
18805;DHT22;9530;48.930;9.526;2023-04-06T06:02:42;-0.20;99.90
18805;DHT22;9530;48.930;9.526;2023-04-06T06:05:08;-0.10;99.90
18805;DHT22;9530;48.930;9.526;2023-04-06T06:07:35;-0.10;99.90
18805;DHT22;9530;48.930;9.526;2023-04-06T06:10:02;0.00;99.90
18805;DHT22;9530;48.930;9.526;2023-04-06T06:12:29;0.10;99.90
18805;DHT22;9530;48.930;9.526;2023-04-06T06:14:57;0.20;99.90
18805;DHT22;9530;48.930;9.526;2023-04-06T06:17:24;0.30;99.90
18805;DHT22;9530;48.930;9.526;2023-04-06T06:19:51;0.40;99.90
18805;DHT22;9530;48.930;9.526;2023-04-06T06:22:17;0.50;99.90
18805;DHT22;9530;48.930;9.526;2023-04-06T06:24:44;0.60;99.90
18805;DHT22;9530;48.930;9.526;2023-04-06T06:27:10;0.70;99.90
18805;DHT22;9530;48.930;9.526;2023-04-06T06:29:37;0.80;99.90
18805;DHT22;9530;48.930;9.526;2023-04-06T06:32:05;1.10;99.90
18805;DHT22;9530;48.930;9.526;2023-04-06T06:34:34;1.20;99.90
18805;DHT22;9530;48.930;9.526;2023-04-06T06:37:01;1.40;99.90
18805;DHT22;9530;48.930;9.526;2023-04-06T06:39:28;1.50;99.90
18805;DHT22;9530;48.930;9.526;2023-04-06T06:41:55;1.70;99.90
18805;DHT22;9530;48.930;9.526;2023-04-06T06:44:22;1.90;99.90
18805;DHT22;9530;48.930;9.526;2023-04-06T06:46:48;2.10;99.90
18805;DHT22;9530;48.930;9.526;2023-04-06T06:49:16;2.30;99.90
18805;DHT22;9530;48.930;9.526;2023-04-06T06:51:44;2.40;99.90
18805;DHT22;9530;48.930;9.526;2023-04-06T06:54:11;2.60;99.90
18805;DHT22;9530;48.930;9.526;2023-04-06T06:56:38;2.80;99.90
18805;DHT22;9530;48.930;9.526;2023-04-06T06:59:05;3.10;99.90
18805;DHT22;9530;48.930;9.526;2023-04-06T07:01:32;3.20;99.90
18805;DHT22;9530;48.930;9.526;2023-04-06T07:04:00;3.50;99.90
18805;DHT22;9530;48.930;9.526;2023-04-06T07:06:28;3.60;99.90
18805;DHT22;9530;48.930;9.526;2023-04-06T07:08:55;3.80;99.90
18805;DHT22;9530;48.930;9.526;2023-04-06T07:11:21;4.10;99.90
18805;DHT22;9530;48.930;9.526;2023-04-06T07:13:48;4.30;99.90
18805;DHT22;9530;48.930;9.526;2023-04-06T07:16:15;4.50;99.90
18805;DHT22;9530;48.930;9.526;2023-04-06T07:18:41;4.60;99.90
18805;DHT22;9530;48.930;9.526;2023-04-06T07:21:08;4.90;99.90
18805;DHT22;9530;48.930;9.526;2023-04-06T07:23:37;5.10;99.90
18805;DHT22;9530;48.930;9.526;2023-04-06T07:26:04;5.30;99.90
18805;DHT22;9530;48.930;9.526;2023-04-06T07:28:31;5.40;99.90
18805;DHT22;9530;48.930;9.526;2023-04-06T07:30:57;5.50;99.90
18805;DHT22;9530;48.930;9.526;2023-04-06T07:33:24;5.60;99.90
18805;DHT22;9530;48.930;9.526;2023-04-06T07:35:55;5.80;99.90
18805;DHT22;9530;48.930;9.526;2023-04-06T07:38:21;6.00;99.90
18805;DHT22;9530;48.930;9.526;2023-04-06T07:40:49;6.10;99.90
18805;DHT22;9530;48.930;9.526;2023-04-06T07:43:16;6.20;99.90
18805;DHT22;9530;48.930;9.526;2023-04-06T07:45:43;6.40;99.90
18805;DHT22;9530;48.930;9.526;2023-04-06T07:48:09;6.50;99.90
18805;DHT22;9530;48.930;9.526;2023-04-06T07:50:36;6.60;99.90
18805;DHT22;9530;48.930;9.526;2023-04-06T07:53:03;6.60;99.90
18805;DHT22;9530;48.930;9.526;2023-04-06T07:55:30;6.80;99.90
18805;DHT22;9530;48.930;9.526;2023-04-06T07:57:57;6.90;99.90
18805;DHT22;9530;48.930;9.526;2023-04-06T08:00:24;7.00;99.90
18805;DHT22;9530;48.930;9.526;2023-04-06T08:02:51;7.10;99.90
18805;DHT22;9530;48.930;9.526;2023-04-06T08:05:17;7.10;99.90
18805;DHT22;9530;48.930;9.526;2023-04-06T08:07:44;7.20;99.90
18805;DHT22;9530;48.930;9.526;2023-04-06T08:10:11;7.40;99.90
18805;DHT22;9530;48.930;9.526;2023-04-06T08:12:38;7.50;99.90
18805;DHT22;9530;48.930;9.526;2023-04-06T08:15:06;7.70;99.90
18805;DHT22;9530;48.930;9.526;2023-04-06T08:17:33;7.90;99.90
18805;DHT22;9530;48.930;9.526;2023-04-06T08:20:00;8.20;99.90
18805;DHT22;9530;48.930;9.526;2023-04-06T08:22:28;8.30;99.90
18805;DHT22;9530;48.930;9.526;2023-04-06T08:24:55;8.50;99.90
18805;DHT22;9530;48.930;9.526;2023-04-06T08:27:22;8.60;99.90
18805;DHT22;9530;48.930;9.526;2023-04-06T08:29:49;8.70;99.90
18805;DHT22;9530;48.930;9.526;2023-04-06T08:32:17;8.80;99.90
18805;DHT22;9530;48.930;9.526;2023-04-06T08:34:44;8.90;99.90
18805;DHT22;9530;48.930;9.526;2023-04-06T08:37:11;8.90;99.90
18805;DHT22;9530;48.930;9.526;2023-04-06T08:39:38;9.10;99.90
18805;DHT22;9530;48.930;9.526;2023-04-06T08:42:09;9.10;99.90
18805;DHT22;9530;48.930;9.526;2023-04-06T08:44:36;9.30;99.90
18805;DHT22;9530;48.930;9.526;2023-04-06T08:47:04;9.40;99.90
18805;DHT22;9530;48.930;9.526;2023-04-06T08:49:33;9.40;99.90
18805;DHT22;9530;48.930;9.526;2023-04-06T08:52:01;9.50;99.90
18805;DHT22;9530;48.930;9.526;2023-04-06T08:54:27;9.50;99.90
18805;DHT22;9530;48.930;9.526;2023-04-06T08:56:54;9.60;99.90
18805;DHT22;9530;48.930;9.526;2023-04-06T08:59:21;9.70;99.90
18805;DHT22;9530;48.930;9.526;2023-04-06T09:01:50;9.80;99.90
18805;DHT22;9530;48.930;9.526;2023-04-06T09:04:17;9.80;99.90
18805;DHT22;9530;48.930;9.526;2023-04-06T09:06:46;9.90;99.90
18805;DHT22;9530;48.930;9.526;2023-04-06T09:09:12;10.00;99.90
18805;DHT22;9530;48.930;9.526;2023-04-06T09:11:44;10.10;99.90
18805;DHT22;9530;48.930;9.526;2023-04-06T09:14:11;10.20;99.90
18805;DHT22;9530;48.930;9.526;2023-04-06T09:16:41;10.20;99.90
18805;DHT22;9530;48.930;9.526;2023-04-06T09:19:09;10.30;99.90
18805;DHT22;9530;48.930;9.526;2023-04-06T09:21:35;10.30;99.90
18805;DHT22;9530;48.930;9.526;2023-04-06T09:24:05;10.60;99.90
18805;DHT22;9530;48.930;9.526;2023-04-06T09:26:32;10.70;99.90
18805;DHT22;9530;48.930;9.526;2023-04-06T09:29:00;10.90;99.90
18805;DHT22;9530;48.930;9.526;2023-04-06T09:31:30;10.80;99.90
18805;DHT22;9530;48.930;9.526;2023-04-06T09:33:59;10.90;99.80
18805;DHT22;9530;48.930;9.526;2023-04-06T09:36:33;10.70;99.60
18805;DHT22;9530;48.930;9.526;2023-04-06T09:39:02;10.90;99.40
18805;DHT22;9530;48.930;9.526;2023-04-06T09:41:31;11.00;99.90
18805;DHT22;9530;48.930;9.526;2023-04-06T09:44:05;11.00;99.90
18805;DHT22;9530;48.930;9.526;2023-04-06T09:46:33;11.10;99.90
18805;DHT22;9530;48.930;9.526;2023-04-06T09:49:02;11.00;98.50
18805;DHT22;9530;48.930;9.526;2023-04-06T09:51:31;11.10;98.60
18805;DHT22;9530;48.930;9.526;2023-04-06T09:53:59;11.30;99.50
18805;DHT22;9530;48.930;9.526;2023-04-06T09:56:34;11.50;99.60
18805;DHT22;9530;48.930;9.526;2023-04-06T09:59:09;11.60;98.60
18805;DHT22;9530;48.930;9.526;2023-04-06T10:01:37;11.60;97.20
18805;DHT22;9530;48.930;9.526;2023-04-06T10:04:13;11.80;96.70
18805;DHT22;9530;48.930;9.526;2023-04-06T10:06:45;11.80;96.30
18805;DHT22;9530;48.930;9.526;2023-04-06T10:09:14;11.70;97.30
18805;DHT22;9530;48.930;9.526;2023-04-06T10:11:43;11.70;95.50
18805;DHT22;9530;48.930;9.526;2023-04-06T10:14:10;11.50;95.70
18805;DHT22;9530;48.930;9.526;2023-04-06T10:16:38;11.50;94.60
18805;DHT22;9530;48.930;9.526;2023-04-06T10:19:10;11.50;95.50
18805;DHT22;9530;48.930;9.526;2023-04-06T10:21:39;11.60;94.60
18805;DHT22;9530;48.930;9.526;2023-04-06T10:24:09;11.60;95.60
18805;DHT22;9530;48.930;9.526;2023-04-06T10:26:37;11.60;96.10
18805;DHT22;9530;48.930;9.526;2023-04-06T10:29:05;11.40;94.70
18805;DHT22;9530;48.930;9.526;2023-04-06T10:31:32;11.50;95.60
18805;DHT22;9530;48.930;9.526;2023-04-06T10:34:00;11.60;94.50
18805;DHT22;9530;48.930;9.526;2023-04-06T10:36:28;11.60;95.70
18805;DHT22;9530;48.930;9.526;2023-04-06T10:38:59;11.80;94.60
18805;DHT22;9530;48.930;9.526;2023-04-06T10:41:33;11.80;94.70
18805;DHT22;9530;48.930;9.526;2023-04-06T10:43:59;11.60;93.60
18805;DHT22;9530;48.930;9.526;2023-04-06T10:46:29;11.60;92.20
18805;DHT22;9530;48.930;9.526;2023-04-06T10:48:56;11.60;94.50
18805;DHT22;9530;48.930;9.526;2023-04-06T10:51:26;11.70;96.60
18805;DHT22;9530;48.930;9.526;2023-04-06T10:53:54;11.70;95.30
18805;DHT22;9530;48.930;9.526;2023-04-06T10:56:24;11.60;94.90
18805;DHT22;9530;48.930;9.526;2023-04-06T10:58:54;11.70;96.40
18805;DHT22;9530;48.930;9.526;2023-04-06T11:01:22;11.80;95.70
18805;DHT22;9530;48.930;9.526;2023-04-06T11:03:52;11.90;97.80
18805;DHT22;9530;48.930;9.526;2023-04-06T11:06:20;12.00;96.10
18805;DHT22;9530;48.930;9.526;2023-04-06T11:08:47;11.90;94.60
18805;DHT22;9530;48.930;9.526;2023-04-06T11:11:16;12.00;94.10
18805;DHT22;9530;48.930;9.526;2023-04-06T11:13:45;12.00;94.20
18805;DHT22;9530;48.930;9.526;2023-04-06T11:16:16;12.10;93.80
18805;DHT22;9530;48.930;9.526;2023-04-06T11:18:55;12.30;94.20
18805;DHT22;9530;48.930;9.526;2023-04-06T11:21:32;12.20;93.70
18805;DHT22;9530;48.930;9.526;2023-04-06T11:24:07;12.40;93.50
18805;DHT22;9530;48.930;9.526;2023-04-06T11:26:40;12.20;91.90
18805;DHT22;9530;48.930;9.526;2023-04-06T11:29:07;12.20;93.10
18805;DHT22;9530;48.930;9.526;2023-04-06T11:31:39;12.40;93.20
18805;DHT22;9530;48.930;9.526;2023-04-06T11:34:11;12.20;94.80
18805;DHT22;9530;48.930;9.526;2023-04-06T11:36:40;12.40;92.00
18805;DHT22;9530;48.930;9.526;2023-04-06T11:39:08;12.30;91.60
18805;DHT22;9530;48.930;9.526;2023-04-06T11:41:35;12.60;92.90
18805;DHT22;9530;48.930;9.526;2023-04-06T11:44:02;12.60;94.40
18805;DHT22;9530;48.930;9.526;2023-04-06T11:46:29;12.50;91.80
18805;DHT22;9530;48.930;9.526;2023-04-06T11:48:58;12.20;92.40
18805;DHT22;9530;48.930;9.526;2023-04-06T11:51:27;12.40;92.00
18805;DHT22;9530;48.930;9.526;2023-04-06T11:53:53;12.40;91.50
18805;DHT22;9530;48.930;9.526;2023-04-06T11:56:24;12.20;91.20
18805;DHT22;9530;48.930;9.526;2023-04-06T11:58:51;12.00;92.80
18805;DHT22;9530;48.930;9.526;2023-04-06T12:01:18;12.30;93.80
18805;DHT22;9530;48.930;9.526;2023-04-06T12:03:45;12.50;92.60
18805;DHT22;9530;48.930;9.526;2023-04-06T12:06:12;12.50;93.10
18805;DHT22;9530;48.930;9.526;2023-04-06T12:08:40;12.70;93.50
18805;DHT22;9530;48.930;9.526;2023-04-06T12:11:06;12.60;91.20
18805;DHT22;9530;48.930;9.526;2023-04-06T12:13:33;12.60;91.40
18805;DHT22;9530;48.930;9.526;2023-04-06T12:16:00;12.80;90.80
18805;DHT22;9530;48.930;9.526;2023-04-06T12:18:26;12.90;92.10
18805;DHT22;9530;48.930;9.526;2023-04-06T12:20:53;13.20;93.90
18805;DHT22;9530;48.930;9.526;2023-04-06T12:23:20;13.30;92.00
18805;DHT22;9530;48.930;9.526;2023-04-06T12:25:48;13.50;92.40
18805;DHT22;9530;48.930;9.526;2023-04-06T12:28:15;13.60;91.70
18805;DHT22;9530;48.930;9.526;2023-04-06T12:30:42;13.60;91.70
18805;DHT22;9530;48.930;9.526;2023-04-06T12:33:08;13.50;90.60
18805;DHT22;9530;48.930;9.526;2023-04-06T12:35:36;13.50;90.90
18805;DHT22;9530;48.930;9.526;2023-04-06T12:38:04;12.90;88.60
18805;DHT22;9530;48.930;9.526;2023-04-06T12:40:30;12.70;90.90
18805;DHT22;9530;48.930;9.526;2023-04-06T12:42:58;12.60;90.50
18805;DHT22;9530;48.930;9.526;2023-04-06T12:45:25;12.70;90.70
18805;DHT22;9530;48.930;9.526;2023-04-06T12:47:52;12.80;91.10
18805;DHT22;9530;48.930;9.526;2023-04-06T12:50:18;13.00;91.20
18805;DHT22;9530;48.930;9.526;2023-04-06T12:52:45;13.00;88.50
18805;DHT22;9530;48.930;9.526;2023-04-06T12:55:13;12.90;88.80
18805;DHT22;9530;48.930;9.526;2023-04-06T12:57:39;12.90;87.50
18805;DHT22;9530;48.930;9.526;2023-04-06T13:00:09;13.00;88.30
18805;DHT22;9530;48.930;9.526;2023-04-06T13:02:35;12.60;85.90
18805;DHT22;9530;48.930;9.526;2023-04-06T13:05:02;12.60;87.80
18805;DHT22;9530;48.930;9.526;2023-04-06T13:07:29;12.80;87.60
18805;DHT22;9530;48.930;9.526;2023-04-06T13:09:56;12.90;86.60
18805;DHT22;9530;48.930;9.526;2023-04-06T13:12:22;13.10;88.80
18805;DHT22;9530;48.930;9.526;2023-04-06T13:14:49;13.30;87.30
18805;DHT22;9530;48.930;9.526;2023-04-06T13:17:19;13.50;88.90
18805;DHT22;9530;48.930;9.526;2023-04-06T13:19:46;13.60;86.60
18805;DHT22;9530;48.930;9.526;2023-04-06T13:22:13;13.80;87.20
18805;DHT22;9530;48.930;9.526;2023-04-06T13:24:41;14.00;86.30
18805;DHT22;9530;48.930;9.526;2023-04-06T13:27:08;14.20;86.80
18805;DHT22;9530;48.930;9.526;2023-04-06T13:29:34;14.40;87.70
18805;DHT22;9530;48.930;9.526;2023-04-06T13:32:02;14.60;87.70
18805;DHT22;9530;48.930;9.526;2023-04-06T13:34:30;14.60;82.40
18805;DHT22;9530;48.930;9.526;2023-04-06T13:36:57;14.60;84.80
18805;DHT22;9530;48.930;9.526;2023-04-06T13:39:24;14.50;82.00
18805;DHT22;9530;48.930;9.526;2023-04-06T13:41:53;14.40;80.50
18805;DHT22;9530;48.930;9.526;2023-04-06T13:44:21;14.20;83.70
18805;DHT22;9530;48.930;9.526;2023-04-06T13:46:48;14.10;82.70
18805;DHT22;9530;48.930;9.526;2023-04-06T13:49:15;14.20;83.30
18805;DHT22;9530;48.930;9.526;2023-04-06T13:51:43;14.30;80.90
18805;DHT22;9530;48.930;9.526;2023-04-06T13:54:09;14.50;82.60
18805;DHT22;9530;48.930;9.526;2023-04-06T13:56:36;14.80;83.60
18805;DHT22;9530;48.930;9.526;2023-04-06T13:59:03;14.90;81.10
18805;DHT22;9530;48.930;9.526;2023-04-06T14:01:30;14.90;77.30
18805;DHT22;9530;48.930;9.526;2023-04-06T14:03:56;14.80;77.20
18805;DHT22;9530;48.930;9.526;2023-04-06T14:06:23;14.50;78.80
18805;DHT22;9530;48.930;9.526;2023-04-06T14:08:51;14.70;79.40
18805;DHT22;9530;48.930;9.526;2023-04-06T14:11:18;14.90;78.40
18805;DHT22;9530;48.930;9.526;2023-04-06T14:13:44;15.00;77.50
18805;DHT22;9530;48.930;9.526;2023-04-06T14:16:11;15.10;77.50
18805;DHT22;9530;48.930;9.526;2023-04-06T14:18:38;14.90;76.40
18805;DHT22;9530;48.930;9.526;2023-04-06T14:21:05;14.80;78.90
18805;DHT22;9530;48.930;9.526;2023-04-06T14:23:31;15.00;79.10
18805;DHT22;9530;48.930;9.526;2023-04-06T14:26:04;15.00;76.50
18805;DHT22;9530;48.930;9.526;2023-04-06T14:28:31;15.10;75.20
18805;DHT22;9530;48.930;9.526;2023-04-06T14:30:58;15.20;75.20
18805;DHT22;9530;48.930;9.526;2023-04-06T14:33:25;15.20;74.70
18805;DHT22;9530;48.930;9.526;2023-04-06T14:35:52;15.10;75.80
18805;DHT22;9530;48.930;9.526;2023-04-06T14:38:19;15.10;76.90
18805;DHT22;9530;48.930;9.526;2023-04-06T14:40:45;14.80;73.50
18805;DHT22;9530;48.930;9.526;2023-04-06T14:43:13;14.80;72.20
18805;DHT22;9530;48.930;9.526;2023-04-06T14:45:40;14.90;72.80
18805;DHT22;9530;48.930;9.526;2023-04-06T14:48:07;14.70;72.70
18805;DHT22;9530;48.930;9.526;2023-04-06T14:50:37;14.80;74.70
18805;DHT22;9530;48.930;9.526;2023-04-06T14:53:04;14.80;75.80
18805;DHT22;9530;48.930;9.526;2023-04-06T14:55:30;14.70;71.40
18805;DHT22;9530;48.930;9.526;2023-04-06T14:57:57;14.70;75.30
18805;DHT22;9530;48.930;9.526;2023-04-06T15:00:25;15.00;72.20
18805;DHT22;9530;48.930;9.526;2023-04-06T15:02:52;15.10;74.00
18805;DHT22;9530;48.930;9.526;2023-04-06T15:05:18;15.40;72.40
18805;DHT22;9530;48.930;9.526;2023-04-06T15:07:45;15.60;69.50
18805;DHT22;9530;48.930;9.526;2023-04-06T15:10:12;15.60;69.20
18805;DHT22;9530;48.930;9.526;2023-04-06T15:12:38;15.20;67.40
18805;DHT22;9530;48.930;9.526;2023-04-06T15:15:06;15.40;66.80
18805;DHT22;9530;48.930;9.526;2023-04-06T15:17:34;15.30;69.20
18805;DHT22;9530;48.930;9.526;2023-04-06T15:20:00;15.20;68.20
18805;DHT22;9530;48.930;9.526;2023-04-06T15:22:28;15.40;67.40
18805;DHT22;9530;48.930;9.526;2023-04-06T15:24:55;15.50;68.90
18805;DHT22;9530;48.930;9.526;2023-04-06T15:27:21;15.50;67.30
18805;DHT22;9530;48.930;9.526;2023-04-06T15:29:48;15.30;70.10
18805;DHT22;9530;48.930;9.526;2023-04-06T15:32:15;15.30;68.80
18805;DHT22;9530;48.930;9.526;2023-04-06T15:34:42;15.10;69.40
18805;DHT22;9530;48.930;9.526;2023-04-06T15:37:09;14.80;66.30
18805;DHT22;9530;48.930;9.526;2023-04-06T15:39:36;14.90;65.90
18805;DHT22;9530;48.930;9.526;2023-04-06T15:42:03;14.70;65.30
18805;DHT22;9530;48.930;9.526;2023-04-06T15:44:30;14.80;66.90
18805;DHT22;9530;48.930;9.526;2023-04-06T15:46:56;15.00;66.00
18805;DHT22;9530;48.930;9.526;2023-04-06T15:49:23;14.80;68.60
18805;DHT22;9530;48.930;9.526;2023-04-06T15:51:51;14.80;65.60
18805;DHT22;9530;48.930;9.526;2023-04-06T15:54:18;14.60;69.40